sensor_id;sensor_type;location;lat;lon;timestamp;P1;durP1;ratioP1;P2;durP2;ratioP2
29730;SDS011;16639;51.488;0.152;2023-02-07T00:01:26;42.85;;;13.05;;
29730;SDS011;16639;51.488;0.152;2023-02-07T00:03:55;51.13;;;15.82;;
29730;SDS011;16639;51.488;0.152;2023-02-07T00:06:25;34.03;;;12.70;;
29730;SDS011;16639;51.488;0.152;2023-02-07T00:08:55;38.20;;;11.77;;
29730;SDS011;16639;51.488;0.152;2023-02-07T00:11:24;42.67;;;12.68;;
29730;SDS011;16639;51.488;0.152;2023-02-07T00:13:53;35.65;;;12.38;;
29730;SDS011;16639;51.488;0.152;2023-02-07T00:16:22;34.85;;;12.10;;
29730;SDS011;16639;51.488;0.152;2023-02-07T00:18:52;44.30;;;12.98;;
29730;SDS011;16639;51.488;0.152;2023-02-07T00:21:21;37.95;;;11.82;;
29730;SDS011;16639;51.488;0.152;2023-02-07T00:23:50;36.90;;;11.48;;
29730;SDS011;16639;51.488;0.152;2023-02-07T00:26:19;36.38;;;13.15;;
29730;SDS011;16639;51.488;0.152;2023-02-07T00:28:49;30.75;;;11.88;;
29730;SDS011;16639;51.488;0.152;2023-02-07T00:33:48;33.88;;;12.48;;
29730;SDS011;16639;51.488;0.152;2023-02-07T00:36:17;30.02;;;11.88;;
29730;SDS011;16639;51.488;0.152;2023-02-07T00:38:47;33.45;;;12.75;;
29730;SDS011;16639;51.488;0.152;2023-02-07T00:41:15;40.00;;;13.60;;
29730;SDS011;16639;51.488;0.152;2023-02-07T00:43:45;37.00;;;13.45;;
29730;SDS011;16639;51.488;0.152;2023-02-07T00:46:13;39.35;;;13.93;;
29730;SDS011;16639;51.488;0.152;2023-02-07T00:48:41;36.60;;;13.80;;
29730;SDS011;16639;51.488;0.152;2023-02-07T00:51:09;33.70;;;12.75;;
29730;SDS011;16639;51.488;0.152;2023-02-07T00:53:49;40.45;;;13.25;;
29730;SDS011;16639;51.488;0.152;2023-02-07T00:56:25;33.60;;;13.35;;
29730;SDS011;16639;51.488;0.152;2023-02-07T00:59:12;33.13;;;12.40;;
29730;SDS011;16639;51.488;0.152;2023-02-07T01:01:39;31.92;;;13.55;;
29730;SDS011;16639;51.488;0.152;2023-02-07T01:04:07;33.30;;;13.13;;
29730;SDS011;16639;51.488;0.152;2023-02-07T01:06:34;29.92;;;15.57;;
29730;SDS011;16639;51.488;0.152;2023-02-07T01:09:03;44.78;;;15.55;;
29730;SDS011;16639;51.488;0.152;2023-02-07T01:11:32;41.03;;;14.25;;
29730;SDS011;16639;51.488;0.152;2023-02-07T01:13:59;39.72;;;14.20;;
29730;SDS011;16639;51.488;0.152;2023-02-07T01:16:34;33.88;;;14.45;;
29730;SDS011;16639;51.488;0.152;2023-02-07T01:19:04;39.70;;;14.85;;
29730;SDS011;16639;51.488;0.152;2023-02-07T01:21:33;49.58;;;15.80;;
29730;SDS011;16639;51.488;0.152;2023-02-07T01:24:01;36.70;;;14.05;;
29730;SDS011;16639;51.488;0.152;2023-02-07T01:26:29;37.38;;;14.25;;
29730;SDS011;16639;51.488;0.152;2023-02-07T01:28:56;27.05;;;14.65;;
29730;SDS011;16639;51.488;0.152;2023-02-07T01:31:24;37.50;;;16.02;;
29730;SDS011;16639;51.488;0.152;2023-02-07T01:33:54;40.15;;;14.50;;
29730;SDS011;16639;51.488;0.152;2023-02-07T01:36:31;40.83;;;14.68;;
29730;SDS011;16639;51.488;0.152;2023-02-07T01:39:08;35.05;;;14.38;;
29730;SDS011;16639;51.488;0.152;2023-02-07T01:41:41;38.35;;;14.88;;
29730;SDS011;16639;51.488;0.152;2023-02-07T01:46:58;33.90;;;13.65;;
29730;SDS011;16639;51.488;0.152;2023-02-07T01:49:44;52.45;;;14.57;;
29730;SDS011;16639;51.488;0.152;2023-02-07T01:52:17;41.75;;;14.85;;
29730;SDS011;16639;51.488;0.152;2023-02-07T01:54:49;42.75;;;14.93;;
29730;SDS011;16639;51.488;0.152;2023-02-07T01:57:21;47.30;;;14.95;;
29730;SDS011;16639;51.488;0.152;2023-02-07T01:59:50;43.15;;;14.68;;
29730;SDS011;16639;51.488;0.152;2023-02-07T02:02:20;36.65;;;14.32;;
29730;SDS011;16639;51.488;0.152;2023-02-07T02:04:50;52.90;;;16.30;;
29730;SDS011;16639;51.488;0.152;2023-02-07T02:07:19;37.25;;;16.17;;
29730;SDS011;16639;51.488;0.152;2023-02-07T02:09:47;38.15;;;15.20;;
29730;SDS011;16639;51.488;0.152;2023-02-07T02:15:25;42.95;;;14.93;;
29730;SDS011;16639;51.488;0.152;2023-02-07T02:23:23;42.78;;;16.25;;
29730;SDS011;16639;51.488;0.152;2023-02-07T02:40:26;41.88;;;15.57;;
29730;SDS011;16639;51.488;0.152;2023-02-07T02:46:06;49.05;;;15.27;;
29730;SDS011;16639;51.488;0.152;2023-02-07T02:48:38;36.72;;;15.52;;
29730;SDS011;16639;51.488;0.152;2023-02-07T02:51:07;36.95;;;16.90;;
29730;SDS011;16639;51.488;0.152;2023-02-07T02:53:35;38.25;;;16.48;;
29730;SDS011;16639;51.488;0.152;2023-02-07T02:56:07;40.30;;;15.18;;
29730;SDS011;16639;51.488;0.152;2023-02-07T03:07:02;34.33;;;14.10;;
29730;SDS011;16639;51.488;0.152;2023-02-07T03:12:43;39.38;;;15.90;;
29730;SDS011;16639;51.488;0.152;2023-02-07T03:15:32;34.25;;;15.55;;
29730;SDS011;16639;51.488;0.152;2023-02-07T03:18:18;38.88;;;16.63;;
29730;SDS011;16639;51.488;0.152;2023-02-07T03:20:53;32.60;;;15.23;;
29730;SDS011;16639;51.488;0.152;2023-02-07T03:23:27;34.55;;;13.93;;
29730;SDS011;16639;51.488;0.152;2023-02-07T03:25:56;39.85;;;16.00;;
29730;SDS011;16639;51.488;0.152;2023-02-07T03:28:26;36.97;;;14.43;;
29730;SDS011;16639;51.488;0.152;2023-02-07T03:30:55;30.48;;;14.93;;
29730;SDS011;16639;51.488;0.152;2023-02-07T03:33:24;34.58;;;14.10;;
29730;SDS011;16639;51.488;0.152;2023-02-07T03:38:58;42.53;;;17.58;;
29730;SDS011;16639;51.488;0.152;2023-02-07T03:41:37;52.92;;;15.65;;
29730;SDS011;16639;51.488;0.152;2023-02-07T03:46:40;42.40;;;17.60;;
29730;SDS011;16639;51.488;0.152;2023-02-07T03:49:08;45.53;;;16.05;;
29730;SDS011;16639;51.488;0.152;2023-02-07T03:51:37;44.30;;;16.35;;
29730;SDS011;16639;51.488;0.152;2023-02-07T03:54:04;30.77;;;15.07;;
29730;SDS011;16639;51.488;0.152;2023-02-07T03:56:32;47.53;;;19.38;;
29730;SDS011;16639;51.488;0.152;2023-02-07T03:58:59;46.13;;;17.30;;
29730;SDS011;16639;51.488;0.152;2023-02-07T04:01:26;68.68;;;21.77;;
29730;SDS011;16639;51.488;0.152;2023-02-07T04:03:54;67.38;;;19.25;;
29730;SDS011;16639;51.488;0.152;2023-02-07T04:06:21;56.58;;;20.13;;
29730;SDS011;16639;51.488;0.152;2023-02-07T04:08:49;37.03;;;18.50;;
29730;SDS011;16639;51.488;0.152;2023-02-07T04:11:16;35.17;;;17.75;;
29730;SDS011;16639;51.488;0.152;2023-02-07T04:13:44;41.53;;;17.20;;
29730;SDS011;16639;51.488;0.152;2023-02-07T04:16:11;48.00;;;20.27;;
29730;SDS011;16639;51.488;0.152;2023-02-07T04:18:38;51.65;;;19.83;;
29730;SDS011;16639;51.488;0.152;2023-02-07T04:21:06;37.50;;;16.98;;
29730;SDS011;16639;51.488;0.152;2023-02-07T04:23:34;38.30;;;15.88;;
29730;SDS011;16639;51.488;0.152;2023-02-07T04:26:02;38.42;;;17.27;;
29730;SDS011;16639;51.488;0.152;2023-02-07T04:28:30;31.45;;;16.40;;
29730;SDS011;16639;51.488;0.152;2023-02-07T04:30:57;35.97;;;18.15;;
29730;SDS011;16639;51.488;0.152;2023-02-07T04:33:24;42.70;;;18.92;;
29730;SDS011;16639;51.488;0.152;2023-02-07T04:35:53;36.88;;;18.20;;
29730;SDS011;16639;51.488;0.152;2023-02-07T04:38:24;55.65;;;19.30;;
29730;SDS011;16639;51.488;0.152;2023-02-07T04:40:56;37.63;;;18.38;;
29730;SDS011;16639;51.488;0.152;2023-02-07T04:43:32;40.95;;;17.92;;
29730;SDS011;16639;51.488;0.152;2023-02-07T04:46:01;35.78;;;18.50;;
29730;SDS011;16639;51.488;0.152;2023-02-07T04:48:31;36.65;;;15.90;;
29730;SDS011;16639;51.488;0.152;2023-02-07T04:50:59;33.75;;;15.63;;
29730;SDS011;16639;51.488;0.152;2023-02-07T04:53:26;28.75;;;13.75;;
29730;SDS011;16639;51.488;0.152;2023-02-07T04:55:53;26.38;;;13.38;;
29730;SDS011;16639;51.488;0.152;2023-02-07T04:58:21;27.88;;;12.70;;
29730;SDS011;16639;51.488;0.152;2023-02-07T05:00:49;26.40;;;15.43;;
29730;SDS011;16639;51.488;0.152;2023-02-07T05:03:16;27.60;;;14.00;;
29730;SDS011;16639;51.488;0.152;2023-02-07T05:05:44;35.47;;;15.68;;
29730;SDS011;16639;51.488;0.152;2023-02-07T05:08:11;32.20;;;13.68;;
29730;SDS011;16639;51.488;0.152;2023-02-07T05:10:39;25.17;;;13.98;;
29730;SDS011;16639;51.488;0.152;2023-02-07T05:13:07;26.25;;;12.80;;
29730;SDS011;16639;51.488;0.152;2023-02-07T05:15:35;27.85;;;13.23;;
29730;SDS011;16639;51.488;0.152;2023-02-07T05:18:03;25.83;;;13.40;;
29730;SDS011;16639;51.488;0.152;2023-02-07T05:20:31;25.23;;;14.23;;
29730;SDS011;16639;51.488;0.152;2023-02-07T05:22:58;28.73;;;14.35;;
29730;SDS011;16639;51.488;0.152;2023-02-07T05:25:26;37.92;;;14.98;;
29730;SDS011;16639;51.488;0.152;2023-02-07T05:27:53;29.20;;;14.52;;
29730;SDS011;16639;51.488;0.152;2023-02-07T05:30:20;23.60;;;12.65;;
29730;SDS011;16639;51.488;0.152;2023-02-07T05:32:48;33.33;;;15.90;;
29730;SDS011;16639;51.488;0.152;2023-02-07T05:35:35;30.98;;;14.88;;
29730;SDS011;16639;51.488;0.152;2023-02-07T05:38:08;29.20;;;14.93;;
29730;SDS011;16639;51.488;0.152;2023-02-07T05:40:37;33.03;;;14.27;;
29730;SDS011;16639;51.488;0.152;2023-02-07T05:43:05;45.80;;;16.42;;
29730;SDS011;16639;51.488;0.152;2023-02-07T05:45:33;28.73;;;15.57;;
29730;SDS011;16639;51.488;0.152;2023-02-07T05:48:01;29.15;;;13.93;;
29730;SDS011;16639;51.488;0.152;2023-02-07T05:50:29;55.40;;;16.13;;
29730;SDS011;16639;51.488;0.152;2023-02-07T05:52:56;39.97;;;14.00;;
29730;SDS011;16639;51.488;0.152;2023-02-07T05:55:24;45.80;;;13.15;;
29730;SDS011;16639;51.488;0.152;2023-02-07T05:57:51;44.53;;;14.90;;
29730;SDS011;16639;51.488;0.152;2023-02-07T06:00:18;58.25;;;15.98;;
29730;SDS011;16639;51.488;0.152;2023-02-07T06:02:46;54.92;;;16.42;;
29730;SDS011;16639;51.488;0.152;2023-02-07T06:05:14;51.55;;;16.70;;
29730;SDS011;16639;51.488;0.152;2023-02-07T06:07:43;49.95;;;15.80;;
29730;SDS011;16639;51.488;0.152;2023-02-07T06:10:10;51.53;;;16.33;;
29730;SDS011;16639;51.488;0.152;2023-02-07T06:12:38;60.30;;;16.95;;
29730;SDS011;16639;51.488;0.152;2023-02-07T06:15:05;46.47;;;15.23;;
29730;SDS011;16639;51.488;0.152;2023-02-07T06:17:33;41.25;;;13.70;;
29730;SDS011;16639;51.488;0.152;2023-02-07T06:20:01;27.83;;;12.45;;
29730;SDS011;16639;51.488;0.152;2023-02-07T06:22:29;40.17;;;13.43;;
29730;SDS011;16639;51.488;0.152;2023-02-07T06:24:56;28.70;;;12.90;;
29730;SDS011;16639;51.488;0.152;2023-02-07T06:27:23;38.20;;;14.45;;
29730;SDS011;16639;51.488;0.152;2023-02-07T06:29:51;38.22;;;12.90;;
29730;SDS011;16639;51.488;0.152;2023-02-07T06:32:18;44.33;;;13.85;;
29730;SDS011;16639;51.488;0.152;2023-02-07T06:34:46;30.98;;;14.00;;
29730;SDS011;16639;51.488;0.152;2023-02-07T06:37:19;42.08;;;16.13;;
29730;SDS011;16639;51.488;0.152;2023-02-07T06:39:56;57.10;;;19.50;;
29730;SDS011;16639;51.488;0.152;2023-02-07T06:42:42;53.35;;;16.38;;
29730;SDS011;16639;51.488;0.152;2023-02-07T06:45:26;39.63;;;14.18;;
29730;SDS011;16639;51.488;0.152;2023-02-07T06:48:02;69.45;;;15.40;;
29730;SDS011;16639;51.488;0.152;2023-02-07T06:51:01;46.58;;;13.73;;
29730;SDS011;16639;51.488;0.152;2023-02-07T06:53:33;64.63;;;13.63;;
29730;SDS011;16639;51.488;0.152;2023-02-07T06:56:05;32.80;;;12.73;;
29730;SDS011;16639;51.488;0.152;2023-02-07T06:58:43;39.42;;;12.95;;
29730;SDS011;16639;51.488;0.152;2023-02-07T07:01:33;30.77;;;10.95;;
29730;SDS011;16639;51.488;0.152;2023-02-07T07:04:08;89.03;;;15.13;;
29730;SDS011;16639;51.488;0.152;2023-02-07T07:06:42;53.08;;;13.35;;
29730;SDS011;16639;51.488;0.152;2023-02-07T07:09:31;36.35;;;11.75;;
29730;SDS011;16639;51.488;0.152;2023-02-07T07:12:39;50.35;;;13.60;;
29730;SDS011;16639;51.488;0.152;2023-02-07T07:15:06;86.32;;;13.75;;
29730;SDS011;16639;51.488;0.152;2023-02-07T07:17:34;91.45;;;13.07;;
29730;SDS011;16639;51.488;0.152;2023-02-07T07:20:01;87.07;;;14.77;;
29730;SDS011;16639;51.488;0.152;2023-02-07T07:22:29;48.90;;;11.85;;
29730;SDS011;16639;51.488;0.152;2023-02-07T07:24:56;97.97;;;14.23;;
29730;SDS011;16639;51.488;0.152;2023-02-07T07:27:23;59.03;;;13.48;;
29730;SDS011;16639;51.488;0.152;2023-02-07T07:29:51;91.90;;;14.82;;
29730;SDS011;16639;51.488;0.152;2023-02-07T07:32:18;34.75;;;14.35;;
29730;SDS011;16639;51.488;0.152;2023-02-07T07:34:59;56.35;;;13.32;;
29730;SDS011;16639;51.488;0.152;2023-02-07T07:37:27;46.03;;;13.20;;
29730;SDS011;16639;51.488;0.152;2023-02-07T07:39:55;131.13;;;17.55;;
29730;SDS011;16639;51.488;0.152;2023-02-07T07:42:22;36.10;;;13.15;;
29730;SDS011;16639;51.488;0.152;2023-02-07T07:44:49;46.72;;;14.13;;
29730;SDS011;16639;51.488;0.152;2023-02-07T07:47:17;52.22;;;14.13;;
29730;SDS011;16639;51.488;0.152;2023-02-07T07:49:44;42.20;;;13.00;;
29730;SDS011;16639;51.488;0.152;2023-02-07T07:52:12;44.35;;;11.23;;
29730;SDS011;16639;51.488;0.152;2023-02-07T07:54:39;83.80;;;14.43;;
29730;SDS011;16639;51.488;0.152;2023-02-07T07:57:07;80.07;;;13.40;;
29730;SDS011;16639;51.488;0.152;2023-02-07T07:59:34;84.22;;;12.73;;
29730;SDS011;16639;51.488;0.152;2023-02-07T08:02:01;37.88;;;11.30;;
29730;SDS011;16639;51.488;0.152;2023-02-07T08:04:28;63.97;;;13.25;;
29730;SDS011;16639;51.488;0.152;2023-02-07T08:06:56;72.55;;;13.88;;
29730;SDS011;16639;51.488;0.152;2023-02-07T08:09:23;57.58;;;12.80;;
29730;SDS011;16639;51.488;0.152;2023-02-07T08:11:50;85.40;;;16.45;;
29730;SDS011;16639;51.488;0.152;2023-02-07T08:14:18;82.93;;;16.52;;
29730;SDS011;16639;51.488;0.152;2023-02-07T08:16:45;99.05;;;21.25;;
29730;SDS011;16639;51.488;0.152;2023-02-07T08:19:12;42.47;;;16.58;;
29730;SDS011;16639;51.488;0.152;2023-02-07T08:21:40;145.70;;;22.05;;
29730;SDS011;16639;51.488;0.152;2023-02-07T08:24:10;245.65;;;29.52;;
29730;SDS011;16639;51.488;0.152;2023-02-07T08:26:37;117.40;;;20.13;;
29730;SDS011;16639;51.488;0.152;2023-02-07T08:29:04;86.85;;;17.52;;
29730;SDS011;16639;51.488;0.152;2023-02-07T08:31:32;82.78;;;16.90;;
29730;SDS011;16639;51.488;0.152;2023-02-07T08:33:59;150.88;;;19.08;;
29730;SDS011;16639;51.488;0.152;2023-02-07T08:36:27;138.45;;;22.27;;
29730;SDS011;16639;51.488;0.152;2023-02-07T08:38:54;166.60;;;25.60;;
29730;SDS011;16639;51.488;0.152;2023-02-07T08:41:21;138.75;;;24.80;;
29730;SDS011;16639;51.488;0.152;2023-02-07T08:43:49;69.00;;;18.75;;
29730;SDS011;16639;51.488;0.152;2023-02-07T08:46:16;158.55;;;22.15;;
29730;SDS011;16639;51.488;0.152;2023-02-07T08:48:43;360.52;;;33.70;;
29730;SDS011;16639;51.488;0.152;2023-02-07T08:51:11;164.68;;;24.67;;
29730;SDS011;16639;51.488;0.152;2023-02-07T08:53:38;311.30;;;32.42;;
29730;SDS011;16639;51.488;0.152;2023-02-07T08:56:05;81.13;;;20.35;;
29730;SDS011;16639;51.488;0.152;2023-02-07T08:58:34;118.97;;;23.17;;
29730;SDS011;16639;51.488;0.152;2023-02-07T09:05:03;210.20;;;30.60;;
29730;SDS011;16639;51.488;0.152;2023-02-07T09:07:33;85.55;;;28.75;;
29730;SDS011;16639;51.488;0.152;2023-02-07T09:10:00;58.90;;;23.75;;
29730;SDS011;16639;51.488;0.152;2023-02-07T09:12:32;68.65;;;24.58;;
29730;SDS011;16639;51.488;0.152;2023-02-07T09:15:00;149.05;;;29.95;;
29730;SDS011;16639;51.488;0.152;2023-02-07T09:17:28;69.95;;;26.15;;
29730;SDS011;16639;51.488;0.152;2023-02-07T09:19:55;81.05;;;27.35;;
29730;SDS011;16639;51.488;0.152;2023-02-07T09:22:23;134.00;;;28.77;;
29730;SDS011;16639;51.488;0.152;2023-02-07T09:24:50;168.07;;;31.00;;
29730;SDS011;16639;51.488;0.152;2023-02-07T09:27:17;159.48;;;31.90;;
29730;SDS011;16639;51.488;0.152;2023-02-07T09:29:44;194.02;;;33.55;;
29730;SDS011;16639;51.488;0.152;2023-02-07T09:32:12;87.15;;;26.25;;
29730;SDS011;16639;51.488;0.152;2023-02-07T09:34:39;157.00;;;31.60;;
29730;SDS011;16639;51.488;0.152;2023-02-07T09:37:06;151.45;;;29.02;;
29730;SDS011;16639;51.488;0.152;2023-02-07T09:39:35;159.73;;;31.13;;
29730;SDS011;16639;51.488;0.152;2023-02-07T09:44:57;73.07;;;25.23;;
29730;SDS011;16639;51.488;0.152;2023-02-07T09:47:29;58.40;;;21.10;;
29730;SDS011;16639;51.488;0.152;2023-02-07T09:50:02;148.55;;;27.00;;
29730;SDS011;16639;51.488;0.152;2023-02-07T09:55:25;85.15;;;19.35;;
29730;SDS011;16639;51.488;0.152;2023-02-07T09:57:59;66.38;;;20.00;;
29730;SDS011;16639;51.488;0.152;2023-02-07T10:00:35;38.53;;;15.88;;
29730;SDS011;16639;51.488;0.152;2023-02-07T10:03:22;35.17;;;18.05;;
29730;SDS011;16639;51.488;0.152;2023-02-07T10:08:44;71.53;;;19.83;;
29730;SDS011;16639;51.488;0.152;2023-02-07T10:14:35;35.33;;;17.33;;
29730;SDS011;16639;51.488;0.152;2023-02-07T10:17:32;33.03;;;16.45;;
29730;SDS011;16639;51.488;0.152;2023-02-07T10:31:16;39.80;;;19.60;;
29730;SDS011;16639;51.488;0.152;2023-02-07T10:33:46;45.78;;;20.42;;
29730;SDS011;16639;51.488;0.152;2023-02-07T10:36:17;39.25;;;20.02;;
29730;SDS011;16639;51.488;0.152;2023-02-07T10:38:49;48.42;;;21.05;;
29730;SDS011;16639;51.488;0.152;2023-02-07T10:41:34;53.45;;;22.02;;
29730;SDS011;16639;51.488;0.152;2023-02-07T10:44:04;46.83;;;22.63;;
29730;SDS011;16639;51.488;0.152;2023-02-07T10:46:35;75.65;;;25.08;;
29730;SDS011;16639;51.488;0.152;2023-02-07T10:49:04;85.75;;;23.85;;
29730;SDS011;16639;51.488;0.152;2023-02-07T10:51:35;49.88;;;24.48;;
29730;SDS011;16639;51.488;0.152;2023-02-07T10:54:14;71.00;;;28.00;;
29730;SDS011;16639;51.488;0.152;2023-02-07T10:56:46;82.63;;;27.48;;
29730;SDS011;16639;51.488;0.152;2023-02-07T10:59:55;92.75;;;28.52;;
29730;SDS011;16639;51.488;0.152;2023-02-07T11:07:57;91.43;;;36.70;;
29730;SDS011;16639;51.488;0.152;2023-02-07T11:10:35;142.93;;;37.28;;
29730;SDS011;16639;51.488;0.152;2023-02-07T11:13:05;66.75;;;32.22;;
29730;SDS011;16639;51.488;0.152;2023-02-07T11:15:46;91.22;;;36.50;;
29730;SDS011;16639;51.488;0.152;2023-02-07T11:18:25;76.05;;;34.78;;
29730;SDS011;16639;51.488;0.152;2023-02-07T11:20:53;132.15;;;41.60;;
29730;SDS011;16639;51.488;0.152;2023-02-07T11:23:22;82.50;;;36.75;;
29730;SDS011;16639;51.488;0.152;2023-02-07T11:25:52;66.68;;;34.45;;
29730;SDS011;16639;51.488;0.152;2023-02-07T11:30:54;86.10;;;37.60;;
29730;SDS011;16639;51.488;0.152;2023-02-07T11:33:26;108.03;;;39.65;;
29730;SDS011;16639;51.488;0.152;2023-02-07T11:38:45;182.40;;;46.20;;
29730;SDS011;16639;51.488;0.152;2023-02-07T11:41:19;97.03;;;40.97;;
29730;SDS011;16639;51.488;0.152;2023-02-07T11:43:54;95.55;;;40.40;;
29730;SDS011;16639;51.488;0.152;2023-02-07T11:46:34;82.30;;;38.97;;
29730;SDS011;16639;51.488;0.152;2023-02-07T11:49:05;74.40;;;35.40;;
29730;SDS011;16639;51.488;0.152;2023-02-07T11:51:35;119.80;;;39.70;;
29730;SDS011;16639;51.488;0.152;2023-02-07T11:54:03;81.68;;;37.38;;
29730;SDS011;16639;51.488;0.152;2023-02-07T11:56:37;79.82;;;36.15;;
29730;SDS011;16639;51.488;0.152;2023-02-07T11:59:10;89.80;;;35.80;;
29730;SDS011;16639;51.488;0.152;2023-02-07T12:01:42;85.78;;;35.33;;
29730;SDS011;16639;51.488;0.152;2023-02-07T12:04:18;91.57;;;36.72;;
29730;SDS011;16639;51.488;0.152;2023-02-07T12:09:35;171.10;;;44.22;;
29730;SDS011;16639;51.488;0.152;2023-02-07T12:12:10;115.40;;;43.03;;
29730;SDS011;16639;51.488;0.152;2023-02-07T12:18:02;296.52;;;64.18;;
29730;SDS011;16639;51.488;0.152;2023-02-07T12:23:56;154.35;;;53.65;;
29730;SDS011;16639;51.488;0.152;2023-02-07T12:26:46;119.35;;;48.97;;
29730;SDS011;16639;51.488;0.152;2023-02-07T12:43:22;142.70;;;55.42;;
29730;SDS011;16639;51.488;0.152;2023-02-07T12:54:16;165.98;;;57.88;;
29730;SDS011;16639;51.488;0.152;2023-02-07T13:13:21;164.90;;;54.35;;
29730;SDS011;16639;51.488;0.152;2023-02-07T13:15:56;153.80;;;57.83;;
29730;SDS011;16639;51.488;0.152;2023-02-07T13:18:42;148.70;;;55.83;;
29730;SDS011;16639;51.488;0.152;2023-02-07T13:21:36;147.95;;;55.38;;
29730;SDS011;16639;51.488;0.152;2023-02-07T13:24:07;128.25;;;49.20;;
29730;SDS011;16639;51.488;0.152;2023-02-07T13:26:40;125.82;;;50.08;;
29730;SDS011;16639;51.488;0.152;2023-02-07T13:29:14;138.77;;;50.85;;
29730;SDS011;16639;51.488;0.152;2023-02-07T13:31:49;104.28;;;42.20;;
29730;SDS011;16639;51.488;0.152;2023-02-07T13:34:43;90.45;;;43.28;;
29730;SDS011;16639;51.488;0.152;2023-02-07T13:37:17;74.25;;;35.53;;
29730;SDS011;16639;51.488;0.152;2023-02-07T13:39:58;76.07;;;34.22;;
29730;SDS011;16639;51.488;0.152;2023-02-07T13:48:20;58.97;;;23.52;;
29730;SDS011;16639;51.488;0.152;2023-02-07T13:56:45;48.28;;;19.88;;
29730;SDS011;16639;51.488;0.152;2023-02-07T13:59:41;41.20;;;19.42;;
29730;SDS011;16639;51.488;0.152;2023-02-07T14:02:27;55.78;;;20.08;;
29730;SDS011;16639;51.488;0.152;2023-02-07T14:04:55;42.60;;;18.60;;
29730;SDS011;16639;51.488;0.152;2023-02-07T14:07:28;45.33;;;18.27;;
29730;SDS011;16639;51.488;0.152;2023-02-07T14:09:59;45.95;;;18.92;;
29730;SDS011;16639;51.488;0.152;2023-02-07T14:12:28;41.60;;;16.70;;
29730;SDS011;16639;51.488;0.152;2023-02-07T14:17:55;46.42;;;16.10;;
29730;SDS011;16639;51.488;0.152;2023-02-07T14:25:40;40.90;;;14.93;;
29730;SDS011;16639;51.488;0.152;2023-02-07T14:31:00;46.10;;;16.50;;
29730;SDS011;16639;51.488;0.152;2023-02-07T14:33:37;37.35;;;16.27;;
29730;SDS011;16639;51.488;0.152;2023-02-07T14:41:33;41.78;;;16.25;;
29730;SDS011;16639;51.488;0.152;2023-02-07T14:44:04;39.33;;;17.13;;
29730;SDS011;16639;51.488;0.152;2023-02-07T14:46:45;42.88;;;15.85;;
29730;SDS011;16639;51.488;0.152;2023-02-07T14:49:19;44.45;;;18.40;;
29730;SDS011;16639;51.488;0.152;2023-02-07T14:51:51;41.13;;;18.05;;
29730;SDS011;16639;51.488;0.152;2023-02-07T14:54:28;33.85;;;14.63;;
29730;SDS011;16639;51.488;0.152;2023-02-07T15:10:52;43.42;;;18.60;;
29730;SDS011;16639;51.488;0.152;2023-02-07T15:13:30;44.83;;;16.88;;
29730;SDS011;16639;51.488;0.152;2023-02-07T15:16:05;36.25;;;16.70;;
29730;SDS011;16639;51.488;0.152;2023-02-07T15:18:44;40.58;;;16.00;;
29730;SDS011;16639;51.488;0.152;2023-02-07T15:21:37;39.13;;;16.13;;
29730;SDS011;16639;51.488;0.152;2023-02-07T15:24:28;43.10;;;15.57;;
29730;SDS011;16639;51.488;0.152;2023-02-07T15:27:18;39.83;;;16.45;;
29730;SDS011;16639;51.488;0.152;2023-02-07T15:32:23;39.53;;;17.13;;
29730;SDS011;16639;51.488;0.152;2023-02-07T15:34:57;37.65;;;15.45;;
29730;SDS011;16639;51.488;0.152;2023-02-07T15:37:37;37.45;;;15.40;;
29730;SDS011;16639;51.488;0.152;2023-02-07T15:40:04;33.03;;;16.75;;
29730;SDS011;16639;51.488;0.152;2023-02-07T15:42:32;34.33;;;16.17;;
29730;SDS011;16639;51.488;0.152;2023-02-07T15:44:59;35.42;;;13.57;;
29730;SDS011;16639;51.488;0.152;2023-02-07T15:50:01;34.45;;;15.35;;
29730;SDS011;16639;51.488;0.152;2023-02-07T15:52:55;43.55;;;14.82;;
29730;SDS011;16639;51.488;0.152;2023-02-07T15:55:29;35.03;;;13.65;;
29730;SDS011;16639;51.488;0.152;2023-02-07T16:01:27;28.05;;;13.95;;
29730;SDS011;16639;51.488;0.152;2023-02-07T16:04:29;45.25;;;15.13;;
29730;SDS011;16639;51.488;0.152;2023-02-07T16:07:10;33.08;;;13.27;;
29730;SDS011;16639;51.488;0.152;2023-02-07T16:09:44;38.03;;;15.45;;
29730;SDS011;16639;51.488;0.152;2023-02-07T16:18:05;30.83;;;14.60;;
29730;SDS011;16639;51.488;0.152;2023-02-07T16:21:03;39.22;;;15.30;;
29730;SDS011;16639;51.488;0.152;2023-02-07T16:23:42;33.10;;;16.05;;
29730;SDS011;16639;51.488;0.152;2023-02-07T16:26:20;36.28;;;16.17;;
29730;SDS011;16639;51.488;0.152;2023-02-07T16:28:50;33.88;;;16.45;;
29730;SDS011;16639;51.488;0.152;2023-02-07T16:31:18;39.40;;;17.00;;
29730;SDS011;16639;51.488;0.152;2023-02-07T16:33:45;43.53;;;17.08;;
29730;SDS011;16639;51.488;0.152;2023-02-07T16:36:16;42.08;;;16.50;;
29730;SDS011;16639;51.488;0.152;2023-02-07T16:38:44;41.75;;;17.75;;
29730;SDS011;16639;51.488;0.152;2023-02-07T16:41:28;53.20;;;17.60;;
29730;SDS011;16639;51.488;0.152;2023-02-07T16:43:58;49.20;;;17.97;;
29730;SDS011;16639;51.488;0.152;2023-02-07T16:46:27;43.60;;;17.23;;
29730;SDS011;16639;51.488;0.152;2023-02-07T16:48:55;46.00;;;18.83;;
29730;SDS011;16639;51.488;0.152;2023-02-07T16:51:23;50.28;;;18.00;;
29730;SDS011;16639;51.488;0.152;2023-02-07T16:53:50;41.65;;;17.60;;
29730;SDS011;16639;51.488;0.152;2023-02-07T16:56:20;42.75;;;18.02;;
29730;SDS011;16639;51.488;0.152;2023-02-07T16:58:52;43.95;;;18.58;;
29730;SDS011;16639;51.488;0.152;2023-02-07T17:05:10;47.33;;;19.77;;
29730;SDS011;16639;51.488;0.152;2023-02-07T17:07:39;52.13;;;21.20;;
29730;SDS011;16639;51.488;0.152;2023-02-07T17:11:11;45.58;;;19.30;;
29730;SDS011;16639;51.488;0.152;2023-02-07T17:14:09;42.95;;;20.00;;
29730;SDS011;16639;51.488;0.152;2023-02-07T17:17:30;45.75;;;19.17;;
29730;SDS011;16639;51.488;0.152;2023-02-07T17:20:34;43.70;;;20.70;;
29730;SDS011;16639;51.488;0.152;2023-02-07T17:23:07;38.67;;;18.58;;
29730;SDS011;16639;51.488;0.152;2023-02-07T17:25:41;46.13;;;19.83;;
29730;SDS011;16639;51.488;0.152;2023-02-07T17:28:23;44.80;;;18.83;;
29730;SDS011;16639;51.488;0.152;2023-02-07T17:31:04;46.42;;;19.73;;
29730;SDS011;16639;51.488;0.152;2023-02-07T17:34:01;50.70;;;19.17;;
29730;SDS011;16639;51.488;0.152;2023-02-07T17:36:32;52.63;;;20.10;;
29730;SDS011;16639;51.488;0.152;2023-02-07T17:39:09;60.83;;;18.90;;
29730;SDS011;16639;51.488;0.152;2023-02-07T17:42:02;42.50;;;19.40;;
29730;SDS011;16639;51.488;0.152;2023-02-07T17:45:13;63.22;;;21.50;;
29730;SDS011;16639;51.488;0.152;2023-02-07T17:48:38;44.00;;;18.85;;
29730;SDS011;16639;51.488;0.152;2023-02-07T17:51:39;44.88;;;19.42;;
29730;SDS011;16639;51.488;0.152;2023-02-07T17:54:25;36.53;;;18.48;;
29730;SDS011;16639;51.488;0.152;2023-02-07T17:57:12;38.58;;;17.88;;
29730;SDS011;16639;51.488;0.152;2023-02-07T17:59:46;43.60;;;17.02;;
29730;SDS011;16639;51.488;0.152;2023-02-07T18:02:26;40.58;;;17.88;;
29730;SDS011;16639;51.488;0.152;2023-02-07T18:04:55;51.33;;;22.05;;
29730;SDS011;16639;51.488;0.152;2023-02-07T18:07:36;41.90;;;18.30;;
29730;SDS011;16639;51.488;0.152;2023-02-07T18:10:26;38.83;;;18.80;;